Terminal Aerodrome Forecast
Issued by NWS

Home | Current Version | Previous Version | Text Only | Print | Product List | Glossary On
Versions: 1 2 3 4 5 6 7 8 9 10 11 12 13 14
000
FTUS45 KRIW 270500
TAFBPI
TAF
KBPI 270528Z 2706/2806 VRB06KT P6SM SCT060 BKN100
     FM271500 14006KT P6SM VCSH SCT035 BKN050
     FM271800 14006KT P6SM -SHRA FEW030 BKN040
     FM280100 VRB06KT P6SM SCT045 BKN080=

USA.gov is the U.S. government's official web portal to all federal, state and local government web resources and services.